Overview Statistics Trail Chart Weather Telemetry Raw packets
 

This is the latest recevied weather packets stored in our database for station/object K3RUP-1. If no packets are shown the sender has not sent any weather packets the latest 10 day(s).

<< 100 101 102 103 104 105 106 >>
Time Temp. Humidity Pressure Rain* Wind** Luminosity Snow
1787940805 28.89° C 77% 1015.4 hPa 0 mm - 599 W/m² -
1787940502 28.89° C 77% 1015.5 hPa 0 mm - 662 W/m² -
1787940202 28.33° C 77% 1015.5 hPa 0 mm - 285 W/m² -
1787939896 28.89° C 75% 1015.7 hPa 0 mm - 145 W/m² -
1787939591 28.89° C 76% 1015.6 hPa 0 mm - 207 W/m² -
1787939286 28.89° C 76% 1015.6 hPa 0 mm - 669 W/m² -
1787938981 29.44° C 74% 1015.5 hPa 0 mm - 652 W/m² -
1787938679 28.89° C 76% 1015.6 hPa 0 mm - 634 W/m² -
1787938376 28.33° C 78% 1015.7 hPa 0 mm - 619 W/m² -
1787938076 28.33° C 77% 1015.8 hPa 0 mm - 631 W/m² -
1787937771 27.78° C 80% 1015.7 hPa 0 mm - 599 W/m² -
1787937467 27.78° C 81% 1015.7 hPa 0 mm - 597 W/m² -
1787937164 27.78° C 79% 1015.7 hPa 0 mm - 144 W/m² -
1787936863 27.78° C 81% 1016 hPa 0 mm - 227 W/m² -
1787936558 27.22° C 81% 1016 hPa 0 mm - 223 W/m² -
1787936257 27.78° C 81% 1015.9 hPa 0 mm - 174 W/m² -
1787935953 27.22° C 82% 1015.9 hPa 0 mm - 315 W/m² -
1787935653 27.22° C 82% 1016.1 hPa 0 mm - 642 W/m² -
1787935351 27.22° C 82% 1016.1 hPa 0 mm - 524 W/m² -
1787935045 26.67° C 83% 1016 hPa 0 mm - 298 W/m² -
1787934740 26.67° C 82% 1016.1 hPa 0 mm - 668 W/m² -
1787934439 26.67° C 83% 1016.1 hPa 0 mm - 192 W/m² -
1787934133 26.67° C 83% 1016.2 hPa 0 mm - 651 W/m² -
1787933832 26.11° C 85% 1016.5 hPa 0 mm - 592 W/m² -
1787933527 25.56° C 86% 1016.3 hPa 0 mm - 240 W/m² -

* Rain latest hour (hover to see other rain measurements)
** Current wind speed in m/s (hover to see current wind gust speed)